Time;durP1;ratioP1;P1;durP2;ratioP2;P2;SDS_P1;SDS_P2;PMS_P1;PMS_P2;Temp;Humidity;BMP_temperature;BMP_pressure;BME280_temperature;BME280_humidity;BME280_pressure;Samples;Min_cycle;Max_cycle;Signal;HPM_P1;HPM_P2
2021/04/05 00:00:06;;;;;;;33.88;16.08;;;;;;;-143.98;100.00;68091.63;5058483;28;20063;-78
2021/04/05 00:02:33;;;;;;;28.98;15.65;;;;;;;-143.98;100.00;68091.63;5056359;28;20056;-78
2021/04/05 00:04:59;;;;;;;35.38;15.45;;;;;;;-143.98;100.00;68091.63;5065330;28;20415;-78
2021/04/05 00:07:28;;;;;;;33.45;14.88;;;;;;;-143.98;100.00;68091.63;5055268;28;20432;-78
2021/04/05 00:09:54;;;;;;;30.60;16.58;;;;;;;-143.98;100.00;68091.63;5055829;28;20251;-78
2021/04/05 00:12:21;;;;;;;35.28;14.32;;;;;;;-143.98;100.00;68091.63;5057590;28;20056;-78
2021/04/05 00:14:50;;;;;;;29.30;14.60;;;;;;;-143.98;100.00;68091.63;5073558;28;20083;-78
2021/04/05 00:17:17;;;;;;;29.50;14.13;;;;;;;-143.98;100.00;68091.63;5058266;28;20056;-78
2021/04/05 00:19:46;;;;;;;29.77;15.23;;;;;;;-143.98;100.00;68091.63;5074156;28;20356;-78
2021/04/05 00:22:12;;;;;;;33.40;14.40;;;;;;;-143.98;100.00;68091.63;5072747;28;20148;-78
2021/04/05 00:24:38;;;;;;;26.40;13.98;;;;;;;-143.98;100.00;68091.63;5076430;28;20071;-78
2021/04/05 00:27:05;;;;;;;31.27;13.65;;;;;;;-143.98;100.00;68091.63;5074576;28;20077;-78
2021/04/05 00:29:32;;;;;;;28.25;15.13;;;;;;;-143.98;100.00;68091.63;5075447;28;20139;-78
2021/04/05 00:31:58;;;;;;;24.25;12.77;;;;;;;-143.98;100.00;68091.63;5066069;28;20063;-78
2021/04/05 00:34:25;;;;;;;38.30;13.85;;;;;;;-143.98;100.00;68091.63;5078393;28;20048;-78
2021/04/05 00:36:54;;;;;;;44.10;13.88;;;;;;;-143.98;100.00;68091.63;5095280;28;20055;-78
2021/04/05 00:39:20;;;;;;;25.65;12.30;;;;;;;-143.98;100.00;68091.63;5077937;28;20257;-78
2021/04/05 00:41:46;;;;;;;26.58;13.45;;;;;;;-143.98;100.00;68091.63;5078355;28;20066;-78
2021/04/05 00:44:14;;;;;;;29.42;12.80;;;;;;;-143.98;100.00;68091.63;5096392;28;20048;-78
2021/04/05 00:46:41;;;;;;;25.60;12.45;;;;;;;-143.98;100.00;68091.63;5079067;28;20109;-78
2021/04/05 00:49:10;;;;;;;29.33;13.32;;;;;;;-143.98;100.00;68091.63;5095071;28;20074;-78
2021/04/05 00:51:40;;;;;;;28.25;12.82;;;;;;;-143.98;100.00;68091.63;5095718;28;20184;-78
2021/04/05 00:54:06;;;;;;;25.88;12.48;;;;;;;-143.98;100.00;68091.63;5080071;28;20051;-78
2021/04/05 00:56:32;;;;;;;27.17;12.82;;;;;;;-143.98;100.00;68091.63;5082079;28;20064;-78
2021/04/05 00:58:59;;;;;;;22.00;10.77;;;;;;;-143.98;100.00;68091.63;5097250;28;20090;-78
2021/04/05 01:01:27;;;;;;;29.38;12.60;;;;;;;-143.98;100.00;68091.63;5098182;28;20052;-78
2021/04/05 01:03:56;;;;;;;27.90;11.30;;;;;;;-143.98;100.00;68091.63;5085043;28;20104;-78
2021/04/05 01:06:26;;;;;;;30.02;11.65;;;;;;;-143.98;100.00;68091.63;5090011;28;20099;-78
2021/04/05 01:08:55;;;;;;;25.35;11.13;;;;;;;-143.98;100.00;68091.63;5089648;28;20056;-78
2021/04/05 01:11:24;;;;;;;23.80;11.70;;;;;;;-143.98;100.00;68091.63;5083380;28;20048;-78
2021/04/05 01:13:53;;;;;;;23.33;11.32;;;;;;;-143.98;100.00;68091.63;5096834;28;20052;-78
2021/04/05 01:16:24;;;;;;;25.40;10.48;;;;;;;-143.98;100.00;68091.63;5080195;28;20183;-78
2021/04/05 01:18:50;;;;;;;29.13;12.27;;;;;;;-143.98;100.00;68091.63;5104842;28;20055;-78
2021/04/05 01:21:20;;;;;;;24.60;12.02;;;;;;;-143.98;100.00;68091.63;5091875;28;20127;-78
2021/04/05 01:23:46;;;;;;;22.50;10.90;;;;;;;-143.98;100.00;68091.63;5111632;28;20159;-78
2021/04/05 01:26:13;;;;;;;25.02;12.15;;;;;;;-143.98;100.00;68091.63;5111857;28;20052;-78
2021/04/05 01:28:39;;;;;;;26.33;11.65;;;;;;;-143.98;100.00;68091.63;5094562;28;20497;-78
2021/04/05 01:31:06;;;;;;;26.52;12.18;;;;;;;-143.98;100.00;68091.63;5107630;28;20115;-78
2021/04/05 01:33:41;;;;;;;27.38;12.38;;;;;;;-143.98;100.00;68091.63;5117388;28;20078;-78
2021/04/05 01:36:16;;;;;;;20.65;10.93;;;;;;;-143.98;100.00;68091.63;5098565;28;20058;-78
2021/04/05 01:38:47;;;;;;;29.70;11.55;;;;;;;-143.98;100.00;68091.63;5083468;28;20063;-78
2021/04/05 01:41:15;;;;;;;30.10;12.63;;;;;;;-143.98;100.00;68091.63;5099238;28;20435;-78
2021/04/05 01:43:41;;;;;;;29.20;12.25;;;;;;;-143.98;100.00;68091.63;5098498;28;20120;-78
2021/04/05 01:46:11;;;;;;;30.25;11.93;;;;;;;-143.98;100.00;68091.63;5081918;28;20063;-78
2021/04/05 01:48:37;;;;;;;26.25;11.82;;;;;;;-143.98;100.00;68091.63;5099635;28;20058;-78
2021/04/05 01:51:08;;;;;;;23.00;12.07;;;;;;;-143.98;100.00;68091.63;5098448;28;20051;-78
2021/04/05 01:53:35;;;;;;;24.80;11.93;;;;;;;-143.98;100.00;68091.63;5081395;28;20331;-79
2021/04/05 01:56:05;;;;;;;25.80;11.38;;;;;;;-143.98;100.00;68091.63;5082633;28;20050;-78
2021/04/05 01:58:32;;;;;;;31.02;12.05;;;;;;;-143.98;100.00;68091.63;5099375;28;20063;-78
2021/04/05 02:00:59;;;;;;;26.92;11.95;;;;;;;-143.98;100.00;68091.63;5099068;28;20095;-78
2021/04/05 02:03:30;;;;;;;34.05;12.73;;;;;;;-143.98;100.00;68091.63;5083126;28;20052;-78
2021/04/05 02:06:21;;;;;;;32.05;12.95;;;;;;;-143.98;100.00;68091.63;5082821;28;20096;-78
2021/04/05 02:08:47;;;;;;;36.90;13.15;;;;;;;-143.98;100.00;68091.63;5099171;28;20104;-79
2021/04/05 02:11:17;;;;;;;41.15;12.93;;;;;;;-143.98;100.00;68091.63;5099505;28;20055;-78
2021/04/05 02:13:44;;;;;;;34.20;14.20;;;;;;;-143.98;100.00;68091.63;5093194;28;20081;-78
2021/04/05 02:16:22;;;;;;;33.75;13.25;;;;;;;-143.98;100.00;68091.63;5112643;28;20052;-78
2021/04/05 02:18:52;;;;;;;30.17;12.98;;;;;;;-143.98;100.00;68091.63;5111142;28;20052;-78
2021/04/05 02:21:21;;;;;;;33.28;14.52;;;;;;;-143.98;100.00;68091.63;5099465;28;20312;-78
2021/04/05 02:23:49;;;;;;;31.83;12.90;;;;;;;-143.98;100.00;68091.63;5099179;28;20052;-78
2021/04/05 02:26:25;;;;;;;32.72;14.18;;;;;;;-143.98;100.00;68091.63;5099225;28;20059;-77
2021/04/05 02:28:53;;;;;;;32.72;13.40;;;;;;;-143.98;100.00;68091.63;5080768;28;20430;-77
2021/04/05 02:31:22;;;;;;;37.78;14.18;;;;;;;-143.98;100.00;68091.63;5079113;28;20052;-77
2021/04/05 02:33:50;;;;;;;39.00;13.93;;;;;;;-143.98;100.00;68091.63;5096878;28;20056;-77
2021/04/05 02:36:18;;;;;;;32.50;14.38;;;;;;;-143.98;100.00;68091.63;5114918;28;20067;-78
2021/04/05 02:38:47;;;;;;;38.97;13.82;;;;;;;-143.98;100.00;68091.63;5079837;28;20249;-77
2021/04/05 02:41:15;;;;;;;32.55;14.13;;;;;;;-143.98;100.00;68091.63;5096575;28;20485;-77
2021/04/05 02:43:42;;;;;;;35.78;13.32;;;;;;;-143.98;100.00;68091.63;5080501;28;20307;-77
2021/04/05 02:46:16;;;;;;;38.47;14.25;;;;;;;-143.98;100.00;68091.63;5096871;28;20171;-78
2021/04/05 02:48:50;;;;;;;37.15;13.18;;;;;;;-143.98;100.00;68091.63;5095705;28;20051;-78
2021/04/05 02:51:16;;;;;;;40.25;14.82;;;;;;;-143.98;100.00;68091.63;5095320;28;20105;-78
2021/04/05 02:53:46;;;;;;;30.58;15.02;;;;;;;-143.98;100.00;68091.63;5097059;28;20048;-77
2021/04/05 02:56:13;;;;;;;36.72;14.73;;;;;;;-143.98;100.00;68091.63;5098068;28;20051;-77
2021/04/05 02:58:41;;;;;;;38.88;14.65;;;;;;;-143.98;100.00;68091.63;5110075;28;20300;-78
2021/04/05 03:01:09;;;;;;;47.03;15.48;;;;;;;-143.98;100.00;68091.63;5107220;28;20128;-78
2021/04/05 03:03:39;;;;;;;40.60;14.32;;;;;;;-143.98;100.00;68091.63;5102958;28;20055;-78
2021/04/05 03:06:06;;;;;;;41.65;15.43;;;;;;;-143.98;100.00;68091.63;5100440;28;20048;-77
2021/04/05 03:08:33;;;;;;;38.55;14.93;;;;;;;-143.98;100.00;68091.63;5100733;28;20350;-78
2021/04/05 03:11:07;;;;;;;38.45;14.40;;;;;;;-143.98;100.00;68091.63;5105768;28;20093;-80
2021/04/05 03:13:35;;;;;;;42.25;15.52;;;;;;;-143.98;100.00;68091.63;5105275;28;20060;-78
2021/04/05 03:16:06;;;;;;;38.08;16.05;;;;;;;-143.98;100.00;68091.63;5100046;28;20062;-78
2021/04/05 03:18:39;;;;;;;35.03;15.38;;;;;;;-143.98;100.00;68091.63;5083636;28;20108;-77
2021/04/05 03:21:07;;;;;;;40.58;16.95;;;;;;;-143.98;100.00;68091.63;5099758;28;20094;-80
2021/04/05 03:23:34;;;;;;;44.55;16.73;;;;;;;-143.98;100.00;68091.63;5098674;28;20051;-78
2021/04/05 03:26:03;;;;;;;32.88;15.23;;;;;;;-143.98;100.00;68091.63;5118735;28;20055;-78
2021/04/05 03:28:29;;;;;;;35.00;16.08;;;;;;;-143.98;100.00;68091.63;5100043;28;20291;-77
2021/04/05 03:31:16;;;;;;;41.67;16.38;;;;;;;-143.98;100.00;68091.63;5083847;28;20083;-78
2021/04/05 03:34:08;;;;;;;42.53;16.77;;;;;;;-143.98;100.00;68091.63;5074406;28;20291;-77
2021/04/05 03:36:43;;;;;;;37.00;15.82;;;;;;;-143.98;100.00;68091.63;5071859;28;20486;-78
2021/04/05 03:39:12;;;;;;;45.63;16.33;;;;;;;-143.98;100.00;68091.63;5074738;28;20091;-78
2021/04/05 03:41:47;;;;;;;46.03;18.23;;;;;;;-143.98;100.00;68091.63;5075753;28;20056;-78
2021/04/05 03:44:25;;;;;;;41.80;17.58;;;;;;;-143.98;100.00;68091.63;5076231;28;20409;-78
2021/04/05 03:46:55;;;;;;;58.78;19.08;;;;;;;-143.98;100.00;68091.63;5076780;28;20052;-78
2021/04/05 03:50:07;;;;;;;52.72;19.77;;;;;;;-143.98;100.00;68091.63;5059838;28;20067;-80
2021/04/05 03:52:38;;;;;;;42.20;18.08;;;;;;;-143.98;100.00;68091.63;5034951;28;20056;-79
2021/04/05 03:55:07;;;;;;;38.65;18.58;;;;;;;-143.98;100.00;68091.63;5053472;28;20048;-80
2021/04/05 03:57:36;;;;;;;37.78;18.45;;;;;;;-143.98;100.00;68091.63;5058472;28;20536;-80
2021/04/05 04:00:14;;;;;;;53.08;19.23;;;;;;;-143.98;100.00;68091.63;5058922;28;20056;-80
2021/04/05 04:02:44;;;;;;;47.58;17.45;;;;;;;-143.98;100.00;68091.63;5059480;28;20220;-81
2021/04/05 04:05:16;;;;;;;46.35;18.77;;;;;;;-143.98;100.00;68091.63;5076257;28;20040;-81
2021/04/05 04:07:53;;;;;;;42.90;18.25;;;;;;;-143.98;100.00;68091.63;5060625;28;20131;-81
2021/04/05 04:10:22;;;;;;;53.42;20.42;;;;;;;-143.98;100.00;68091.63;5076396;28;20052;-81
2021/04/05 04:12:49;;;;;;;45.05;19.10;;;;;;;-143.98;100.00;68091.63;5061119;28;20114;-81
2021/04/05 04:15:15;;;;;;;47.65;19.17;;;;;;;-143.98;100.00;68091.63;5077962;28;20320;-81
2021/04/05 04:17:45;;;;;;;40.70;18.95;;;;;;;-143.98;100.00;68091.63;5083119;28;20138;-82
2021/04/05 04:20:16;;;;;;;37.38;17.63;;;;;;;-143.98;100.00;68091.63;5069120;28;20053;-82
2021/04/05 04:22:47;;;;;;;37.88;17.92;;;;;;;-143.98;100.00;68091.63;5059435;28;20359;-82
2021/04/05 04:25:17;;;;;;;43.47;16.98;;;;;;;-143.98;100.00;68091.63;5059982;28;20071;-84
2021/04/05 04:27:45;;;;;;;44.92;19.15;;;;;;;-143.98;100.00;68091.63;5061213;28;20056;-83
2021/04/05 04:30:31;;;;;;;44.38;17.67;;;;;;;-143.98;100.00;68091.63;5077557;28;20427;-84
2021/04/05 04:33:07;;;;;;;35.15;17.65;;;;;;;-143.98;100.00;68091.63;5077291;28;20071;-83
2021/04/05 04:35:34;;;;;;;;;;;;;;;-143.98;100.00;68091.63;5097046;28;20060;-81
2021/04/05 04:38:01;;;;;;;38.75;17.85;;;;;;;-143.98;100.00;68091.63;5078584;28;19924;-81
2021/04/05 04:40:30;;;;;;;45.67;19.90;;;;;;;-143.98;100.00;68091.63;5096021;28;20348;-83
2021/04/05 04:43:01;;;;;;;46.78;18.63;;;;;;;-143.98;100.00;68091.63;5099476;28;20051;-84
2021/04/05 04:45:28;;;;;;;45.00;17.27;;;;;;;-143.98;100.00;68091.63;5096561;28;20546;-84
2021/04/05 04:47:55;;;;;;;34.08;13.80;;;;;;;-143.98;100.00;68091.63;5081291;28;20070;-84
2021/04/05 04:50:24;;;;;;;36.08;13.70;;;;;;;-143.98;100.00;68091.63;5078183;28;20048;-85
2021/04/05 04:52:53;;;;;;;17.80;7.45;;;;;;;-143.98;100.00;68091.63;5080668;28;20079;-85
2021/04/05 04:55:24;;;;;;;18.90;6.88;;;;;;;-143.98;100.00;68091.63;5097576;28;20052;-84
2021/04/05 04:57:56;;;;;;;10.85;5.30;;;;;;;-143.98;100.00;68091.63;5079794;28;20062;-85
2021/04/05 05:00:28;;;;;;;9.05;2.60;;;;;;;-143.98;100.00;68091.63;5080858;28;20052;-84
2021/04/05 05:02:55;;;;;;;13.07;4.95;;;;;;;-143.98;100.00;68091.63;5097033;28;20059;-83
2021/04/05 05:05:23;;;;;;;9.50;2.88;;;;;;;-143.98;100.00;68091.63;5082149;28;20213;-84
2021/04/05 05:07:50;;;;;;;4.63;1.83;;;;;;;-143.98;100.00;68091.63;5101089;28;20055;-85
2021/04/05 05:10:24;;;;;;;9.82;2.80;;;;;;;-143.98;100.00;68091.63;5085336;28;20113;-85
2021/04/05 05:12:50;;;;;;;10.70;2.90;;;;;;;-143.98;100.00;68091.63;5084399;28;20052;-85
2021/04/05 05:15:16;;;;;;;4.72;1.88;;;;;;;-143.98;100.00;68091.63;5082983;28;20044;-85
2021/04/05 05:17:52;;;;;;;7.30;1.73;;;;;;;-143.98;100.00;68091.63;5095720;28;20048;-83
2021/04/05 05:20:19;;;;;;;4.68;1.50;;;;;;;-143.98;100.00;68091.63;5094783;28;20056;-83
2021/04/05 05:22:50;;;;;;;7.30;1.45;;;;;;;-143.98;100.00;68091.63;5078908;28;20054;-83
2021/04/05 05:25:23;;;;;;;4.32;1.10;;;;;;;-143.98;100.00;68091.63;5079012;28;20093;-83
2021/04/05 05:28:02;;;;;;;3.58;1.13;;;;;;;-143.98;100.00;68091.63;5077687;28;20254;-83
2021/04/05 05:30:32;;;;;;;6.15;1.30;;;;;;;-143.98;100.00;68091.63;5094254;28;20497;-83
2021/04/05 05:33:03;;;;;;;8.38;1.60;;;;;;;-143.98;100.00;68091.63;5093766;28;20072;-83
2021/04/05 05:35:29;;;;;;;6.15;1.42;;;;;;;-143.98;100.00;68091.63;5092830;28;20105;-83
2021/04/05 05:38:04;;;;;;;7.22;1.67;;;;;;;-143.98;100.00;68091.63;5093031;28;20048;-84
2021/04/05 05:40:31;;;;;;;5.47;1.20;;;;;;;-143.98;100.00;68091.63;5094964;28;20063;-83
2021/04/05 05:43:29;;;;;;;6.90;1.30;;;;;;;-143.98;100.00;68091.63;5095722;28;20092;-82
2021/04/05 05:45:55;;;;;;;8.45;1.70;;;;;;;-143.98;100.00;68091.63;5094356;28;20319;-84
2021/04/05 05:48:23;;;;;;;7.07;1.25;;;;;;;-143.98;100.00;68091.63;5095262;28;20052;-84
2021/04/05 05:51:05;;;;;;;7.10;1.92;;;;;;;-143.98;100.00;68091.63;5094720;28;20427;-84
2021/04/05 05:53:57;;;;;;;3.95;0.93;;;;;;;-143.98;100.00;68091.63;5098449;28;20203;-85
2021/04/05 05:56:39;;;;;;;9.80;1.83;;;;;;;-143.98;100.00;68091.63;5083477;28;20079;-85
2021/04/05 05:59:15;;;;;;;3.47;1.23;;;;;;;-143.98;100.00;68091.63;5108179;28;20063;-85
2021/04/05 06:01:46;;;;;;;10.05;1.10;;;;;;;-143.98;100.00;68091.63;5094455;28;20101;-86
2021/04/05 06:04:58;;;;;;;6.50;1.17;;;;;;;-143.98;100.00;68091.63;5109249;28;20048;-83
2021/04/05 06:07:34;;;;;;;3.63;1.15;;;;;;;-143.98;100.00;68091.63;5088138;28;20043;-85
2021/04/05 06:10:06;;;;;;;6.30;1.25;;;;;;;-143.98;100.00;68091.63;5100816;28;20052;-85
2021/04/05 06:12:42;;;;;;;5.20;1.08;;;;;;;-143.98;100.00;68091.63;5079988;28;20071;-85
2021/04/05 06:15:18;;;;;;;9.48;1.30;;;;;;;-143.98;100.00;68091.63;5075755;28;20052;-84
2021/04/05 06:17:48;;;;;;;2.95;1.15;;;;;;;-143.98;100.00;68091.63;5074915;28;20045;-85
2021/04/05 06:20:37;;;;;;;7.47;1.30;;;;;;;-143.98;100.00;68091.63;5072169;28;20040;-84
2021/04/05 06:23:07;;;;;;;4.85;1.15;;;;;;;-143.98;100.00;68091.63;5072422;28;20052;-83
2021/04/05 06:26:11;;;;;;;4.55;1.05;;;;;;;-143.98;100.00;68091.63;5073812;28;20079;-84
2021/04/05 06:29:04;;;;;;;5.68;1.20;;;;;;;-143.98;100.00;68091.63;5064960;28;20045;-84
2021/04/05 06:31:50;;;;;;;8.45;1.33;;;;;;;-143.98;100.00;68091.63;5081970;28;20064;-83
2021/04/05 06:34:35;;;;;;;4.57;1.27;;;;;;;-143.98;100.00;68091.63;5092836;28;20048;-84
2021/04/05 06:37:13;;;;;;;3.53;0.90;;;;;;;-143.98;100.00;68091.63;5095690;28;20438;-84
2021/04/05 06:39:49;;;;;;;4.47;1.25;;;;;;;-143.98;100.00;68091.63;5089439;28;20056;-84
2021/04/05 06:42:49;;;;;;;10.07;1.13;;;;;;;-143.98;100.00;68091.63;5082825;28;20079;-85
2021/04/05 06:45:42;;;;;;;5.65;0.98;;;;;;;-143.98;100.00;68091.63;5085741;28;20051;-85
2021/04/05 06:48:32;;;;;;;10.43;1.60;;;;;;;-143.98;100.00;68091.63;5094865;28;20039;-86
2021/04/05 06:51:27;;;;;;;10.93;1.10;;;;;;;-143.98;100.00;68091.63;5086911;28;20323;-85
2021/04/05 06:54:24;;;;;;;3.65;0.93;;;;;;;-143.98;100.00;68091.63;5100695;28;20054;-84
2021/04/05 06:57:11;;;;;;;4.75;1.13;;;;;;;-143.98;100.00;68091.63;5100770;28;20054;-85
2021/04/05 06:59:45;;;;;;;6.22;1.30;;;;;;;-143.98;100.00;68091.63;5096013;28;20031;-85
2021/04/05 07:02:33;;;;;;;10.35;1.52;;;;;;;-143.98;100.00;68091.63;5096209;28;20038;-86
2021/04/05 07:05:13;;;;;;;19.02;2.10;;;;;;;-143.98;100.00;68091.63;5095758;28;20059;-85
2021/04/05 07:08:17;;;;;;;11.80;1.95;;;;;;;-143.98;100.00;68091.63;5092180;28;20062;-85
2021/04/05 07:11:12;;;;;;;5.50;1.60;;;;;;;-143.98;100.00;68091.63;5084298;28;20048;-84
2021/04/05 07:13:44;;;;;;;16.88;2.28;;;;;;;-143.98;100.00;68091.63;5090841;28;20063;-84
2021/04/05 07:16:15;;;;;;;7.70;1.55;;;;;;;-143.98;100.00;68091.63;5096832;28;20056;-84
2021/04/05 07:19:03;;;;;;;14.10;2.08;;;;;;;-143.98;100.00;68091.63;5089918;28;20144;-84
2021/04/05 07:22:17;;;;;;;10.95;1.88;;;;;;;-143.98;100.00;68091.63;5081734;28;20048;-83
2021/04/05 07:25:03;;;;;;;7.38;1.40;;;;;;;-143.98;100.00;68091.63;5092015;28;20055;-82
2021/04/05 07:27:41;;;;;;;7.20;1.60;;;;;;;-143.98;100.00;68091.63;5082576;28;20073;-83
2021/04/05 07:30:13;;;;;;;10.30;1.50;;;;;;;-143.98;100.00;68091.63;5099211;28;20324;-82
2021/04/05 07:33:16;;;;;;;8.65;1.63;;;;;;;-143.98;100.00;68091.63;5078848;28;20060;-83
2021/04/05 07:36:16;;;;;;;8.98;2.10;;;;;;;-143.98;100.00;68091.63;5077869;28;20044;-82
2021/04/05 07:38:51;;;;;;;9.75;1.20;;;;;;;-143.98;100.00;68091.63;5058683;28;20052;-82
2021/04/05 07:41:46;;;;;;;9.70;1.57;;;;;;;-143.98;100.00;68091.63;5074888;28;20076;-82
2021/04/05 07:44:49;;;;;;;8.95;1.65;;;;;;;-143.98;100.00;68091.63;5076562;28;20064;-83
2021/04/05 07:47:53;;;;;;;14.13;1.25;;;;;;;-143.98;100.00;68091.63;5075863;28;20048;-81
2021/04/05 07:50:29;;;;;;;11.40;2.55;;;;;;;-143.98;100.00;68091.63;5075737;28;20055;-82
2021/04/05 07:53:40;;;;;;;8.02;1.70;;;;;;;-143.98;100.00;68091.63;5093993;28;20574;-81
2021/04/05 07:56:42;;;;;;;9.70;2.40;;;;;;;-143.98;100.00;68091.63;5067639;28;20049;-81
2021/04/05 07:59:29;;;;;;;7.00;1.42;;;;;;;-143.98;100.00;68091.63;5072708;28;20138;-83
2021/04/05 08:02:13;;;;;;;6.20;1.60;;;;;;;-143.98;100.00;68091.63;5073161;28;20048;-81
2021/04/05 08:05:16;;;;;;;10.18;1.30;;;;;;;-143.98;100.00;68091.63;5096924;28;20044;-82
2021/04/05 08:07:44;;;;;;;4.07;1.33;;;;;;;-143.98;100.00;68091.63;5094545;28;20392;-81
2021/04/05 08:10:16;;;;;;;5.25;1.20;;;;;;;-143.98;100.00;68091.63;5073818;28;20215;-81
2021/04/05 08:13:27;;;;;;;3.58;0.90;;;;;;;-143.98;100.00;68091.63;5073081;28;20278;-82
2021/04/05 08:15:56;;;;;;;6.13;1.40;;;;;;;-143.98;100.00;68091.63;5073280;28;20339;-82
2021/04/05 08:18:29;;;;;;;7.97;1.15;;;;;;;-143.98;100.00;68091.63;5072114;28;20052;-82
2021/04/05 08:21:07;;;;;;;6.53;1.45;;;;;;;-143.98;100.00;68091.63;5071338;28;20113;-81
2021/04/05 08:23:51;;;;;;;5.88;1.30;;;;;;;-143.98;100.00;68091.63;5088819;28;20255;-82
2021/04/05 08:26:29;;;;;;;12.23;1.88;;;;;;;-143.98;100.00;68091.63;5086915;28;20210;-81
2021/04/05 08:29:01;;;;;;;5.70;1.42;;;;;;;-143.98;100.00;68091.63;5070598;28;20106;-81
2021/04/05 08:31:41;;;;;;;9.32;1.40;;;;;;;-143.98;100.00;68091.63;5074011;28;20059;-81
2021/04/05 08:34:45;;;;;;;12.07;1.98;;;;;;;-143.98;100.00;68091.63;5074613;28;20125;-81
2021/04/05 08:37:33;;;;;;;3.47;1.30;;;;;;;-143.98;100.00;68091.63;5094802;28;20351;-84
2021/04/05 08:40:10;;;;;;;4.85;1.35;;;;;;;-143.98;100.00;68091.63;5090811;28;20081;-84
2021/04/05 08:43:04;;;;;;;10.38;1.90;;;;;;;-143.98;100.00;68091.63;5096260;28;20075;-84
2021/04/05 08:45:40;;;;;;;8.30;1.33;;;;;;;-143.98;100.00;68091.63;5104783;28;20061;-84
2021/04/05 08:48:11;;;;;;;15.50;2.15;;;;;;;-143.98;100.00;68091.63;5102805;28;20138;-83
2021/04/05 08:50:42;;;;;;;7.25;1.92;;;;;;;-143.98;100.00;68091.63;5081234;28;20051;-83
2021/04/05 08:53:13;;;;;;;9.70;1.70;;;;;;;-143.98;100.00;68091.63;5079289;28;20055;-82
2021/04/05 08:55:46;;;;;;;6.07;2.13;;;;;;;-143.98;100.00;68091.63;5097016;28;20062;-83
2021/04/05 08:58:27;;;;;;;8.18;1.88;;;;;;;-143.98;100.00;68091.63;5097077;28;20058;-82
2021/04/05 09:00:59;;;;;;;8.05;2.22;;;;;;;-143.98;100.00;68091.63;5099516;28;20050;-83
2021/04/05 09:03:28;;;;;;;15.23;2.65;;;;;;;-143.98;100.00;68091.63;5099043;28;20052;-83
2021/04/05 09:05:59;;;;;;;5.85;1.90;;;;;;;-143.98;100.00;68091.63;5102802;28;20044;-83
2021/04/05 09:08:28;;;;;;;7.85;3.38;;;;;;;-143.98;100.00;68091.63;5069174;28;20228;-83
2021/04/05 09:11:05;;;;;;;4.10;1.30;;;;;;;-143.98;100.00;68091.63;5085185;28;20061;-82
2021/04/05 09:13:39;;;;;;;13.23;1.58;;;;;;;-143.98;100.00;68091.63;5097166;28;20059;-83
2021/04/05 09:16:24;;;;;;;9.20;2.08;;;;;;;-143.98;100.00;68091.63;5095884;28;20104;-83
2021/04/05 09:19:11;;;;;;;15.85;3.03;;;;;;;-143.98;100.00;68091.63;5096023;28;20111;-84
2021/04/05 09:22:09;;;;;;;22.75;3.10;;;;;;;-143.98;100.00;68091.63;5097763;28;20040;-85
2021/04/05 09:25:10;;;;;;;10.32;2.55;;;;;;;-143.98;100.00;68091.63;5097552;28;20073;-85
2021/04/05 09:27:58;;;;;;;13.15;3.28;;;;;;;-143.98;100.00;68091.63;5098691;28;20078;-84
2021/04/05 09:30:43;;;;;;;16.20;2.47;;;;;;;-143.98;100.00;68091.63;5096841;28;20048;-84
2021/04/05 09:33:49;;;;;;;14.98;2.50;;;;;;;-143.98;100.00;68091.63;5091983;28;20060;-84
2021/04/05 09:37:04;;;;;;;9.10;2.72;;;;;;;-143.98;100.00;68091.63;5043669;28;20390;-84
2021/04/05 09:39:39;;;;;;;9.57;2.53;;;;;;;-143.98;100.00;68091.63;5085778;28;20438;-84
2021/04/05 09:42:24;;;;;;;18.55;2.90;;;;;;;-143.98;100.00;68091.63;5094268;28;20048;-84
2021/04/05 09:45:15;;;;;;;18.27;2.47;;;;;;;-143.98;100.00;68091.63;5092499;28;20136;-83
2021/04/05 09:48:12;;;;;;;18.02;3.45;;;;;;;-143.98;100.00;68091.63;5075380;28;20401;-83
2021/04/05 09:50:55;;;;;;;21.30;2.90;;;;;;;-143.98;100.00;68091.63;5090863;28;20316;-84
2021/04/05 09:53:37;;;;;;;14.95;2.63;;;;;;;-143.98;100.00;68091.63;5074042;28;20445;-83
2021/04/05 09:56:09;;;;;;;12.85;2.47;;;;;;;-143.98;100.00;68091.63;5094733;28;20067;-83
2021/04/05 09:58:57;;;;;;;20.10;2.80;;;;;;;-143.98;100.00;68091.63;5076309;28;20059;-82
2021/04/05 10:01:28;;;;;;;17.02;3.25;;;;;;;-143.98;100.00;68091.63;5093272;28;20211;-82
2021/04/05 10:04:08;;;;;;;22.20;4.43;;;;;;;-143.98;100.00;68091.63;5104158;28;20032;-82
2021/04/05 10:06:35;;;;;;;13.82;3.42;;;;;;;-143.98;100.00;68091.63;5109663;28;20062;-82
2021/04/05 10:09:03;;;;;;;35.10;11.45;;;;;;;-143.98;100.00;68091.63;5088533;28;20052;-83
2021/04/05 10:11:41;;;;;;;34.22;12.13;;;;;;;-143.98;100.00;68091.63;5092935;28;20171;-82
2021/04/05 10:14:18;;;;;;;15.38;4.40;;;;;;;-143.98;100.00;68091.63;5089520;28;20059;-82
2021/04/05 10:16:57;;;;;;;16.80;3.33;;;;;;;-143.98;100.00;68091.63;5109908;28;20052;-82
2021/04/05 10:19:36;;;;;;;6.82;1.77;;;;;;;-143.98;100.00;68091.63;5087211;28;20116;-81
2021/04/05 10:22:19;;;;;;;5.22;1.80;;;;;;;-143.98;100.00;68091.63;5110177;28;20094;-83
2021/04/05 10:24:50;;;;;;;7.50;1.77;;;;;;;-143.98;100.00;68091.63;5078029;28;20109;-83
2021/04/05 10:27:25;;;;;;;9.70;1.85;;;;;;;-143.98;100.00;68091.63;5093781;28;20067;-81
2021/04/05 10:29:54;;;;;;;8.40;1.63;;;;;;;-143.98;100.00;68091.63;5074742;28;20052;-81
2021/04/05 10:32:25;;;;;;;7.18;1.45;;;;;;;-143.98;100.00;68091.63;5073524;28;20109;-81
2021/04/05 10:35:00;;;;;;;15.07;1.95;;;;;;;-143.98;100.00;68091.63;5089119;28;20121;-81
2021/04/05 10:37:34;;;;;;;14.88;2.05;;;;;;;-143.98;100.00;68091.63;5093078;28;20062;-80
2021/04/05 10:40:02;;;;;;;9.93;1.75;;;;;;;-143.98;100.00;68091.63;5095860;28;20052;-81
2021/04/05 10:42:48;;;;;;;12.63;2.00;;;;;;;-143.98;100.00;68091.63;5078432;28;20374;-80
2021/04/05 10:45:34;;;;;;;11.82;1.83;;;;;;;-143.98;100.00;68091.63;5073902;28;20446;-81
2021/04/05 10:48:22;;;;;;;10.27;1.77;;;;;;;-143.98;100.00;68091.63;5078076;28;20050;-80
2021/04/05 10:50:59;;;;;;;12.55;1.95;;;;;;;-143.98;100.00;68091.63;5058987;28;20097;-80
2021/04/05 10:53:27;;;;;;;10.88;1.83;;;;;;;-143.98;100.00;68091.63;5076894;28;20099;-79
2021/04/05 10:56:03;;;;;;;9.90;1.92;;;;;;;-143.98;100.00;68091.63;5090060;28;20060;-79
2021/04/05 10:58:38;;;;;;;12.95;1.95;;;;;;;-143.98;100.00;68091.63;5080057;28;20144;-79
2021/04/05 11:01:07;;;;;;;16.45;2.75;;;;;;;-143.98;100.00;68091.63;5075171;28;20091;-80
2021/04/05 11:03:40;;;;;;;22.38;2.22;;;;;;;-143.98;100.00;68091.63;5093119;28;20045;-81
2021/04/05 11:06:09;;;;;;;11.65;2.20;;;;;;;-143.98;100.00;68091.63;5076567;28;20058;-80
2021/04/05 11:08:36;;;;;;;19.70;2.10;;;;;;;-143.98;100.00;68091.63;5090524;28;20058;-80
2021/04/05 11:11:18;;;;;;;15.20;2.55;;;;;;;-143.98;100.00;68091.63;5075167;28;20051;-80
2021/04/05 11:13:53;;;;;;;6.68;1.83;;;;;;;-143.98;100.00;68091.63;5090820;28;20589;-81
2021/04/05 11:16:26;;;;;;;10.85;1.75;;;;;;;-143.98;100.00;68091.63;5090077;28;20340;-80
2021/04/05 11:19:07;;;;;;;10.73;1.35;;;;;;;-143.98;100.00;68091.63;5090745;28;20078;-80
2021/04/05 11:21:41;;;;;;;13.60;1.15;;;;;;;-143.98;100.00;68091.63;5074919;28;20052;-81
2021/04/05 11:24:12;;;;;;;2.85;1.20;;;;;;;-143.98;100.00;68091.63;5074363;28;20534;-80
2021/04/05 11:26:40;;;;;;;5.82;1.50;;;;;;;-143.98;100.00;68091.63;5073585;28;20132;-80
2021/04/05 11:29:10;;;;;;;6.60;1.10;;;;;;;-143.98;100.00;68091.63;5090231;28;20174;-81
2021/04/05 11:31:48;;;;;;;3.50;0.90;;;;;;;-143.98;100.00;68091.63;5074027;28;20621;-81
2021/04/05 11:34:25;;;;;;;4.18;1.00;;;;;;;-143.98;100.00;68091.63;5062336;28;20052;-81
2021/04/05 11:37:12;;;;;;;3.40;0.85;;;;;;;-143.98;100.00;68091.63;5059036;28;20580;-79
2021/04/05 11:39:41;;;;;;;2.58;0.65;;;;;;;-143.98;100.00;68091.63;5055732;28;20080;-81